createdAt,value
2017-11-05T00:02:08.747Z,14.80
2017-11-05T00:04:34.859Z,14.80
2017-11-05T00:07:01.869Z,14.80
2017-11-05T00:09:28.033Z,14.80
2017-11-05T00:11:54.165Z,14.90
2017-11-05T00:14:20.643Z,14.80
2017-11-05T00:16:46.881Z,14.70
2017-11-05T00:19:13.342Z,14.60
2017-11-05T00:21:39.673Z,14.60
2017-11-05T00:24:06.737Z,14.70
2017-11-05T00:26:33.833Z,14.70
2017-11-05T00:29:00.193Z,15.00
2017-11-05T00:31:26.564Z,14.80
2017-11-05T00:33:52.897Z,14.80
2017-11-05T00:36:19.241Z,14.70
2017-11-05T00:38:45.590Z,14.50
2017-11-05T00:41:12.687Z,14.50
2017-11-05T00:43:39.034Z,14.40
2017-11-05T00:46:05.483Z,14.50
2017-11-05T00:48:31.936Z,14.50
2017-11-05T00:50:58.277Z,14.50
2017-11-05T00:53:24.613Z,14.60
2017-11-05T00:55:51.728Z,14.20
2017-11-05T00:58:18.089Z,14.20
2017-11-05T01:00:44.972Z,14.70
2017-11-05T01:03:11.321Z,14.20
2017-11-05T01:05:37.660Z,14.10
2017-11-05T01:08:04.200Z,13.90
2017-11-05T01:10:31.265Z,13.70
2017-11-05T01:12:57.676Z,13.70
2017-11-05T01:15:24.804Z,13.70
2017-11-05T01:17:51.203Z,13.70
2017-11-05T01:20:18.544Z,13.60
2017-11-05T01:22:44.965Z,13.60
2017-11-05T01:25:11.322Z,13.60
2017-11-05T01:27:37.677Z,13.60
2017-11-05T01:30:04.042Z,13.70
2017-11-05T01:32:31.138Z,13.90
2017-11-05T01:34:57.510Z,13.80
2017-11-05T01:37:23.870Z,14.10
2017-11-05T01:39:50.223Z,13.70
2017-11-05T01:42:17.491Z,13.80
2017-11-05T01:44:43.841Z,14.00
2017-11-05T01:47:10.206Z,14.00
2017-11-05T01:49:36.602Z,13.80
2017-11-05T01:52:03.019Z,13.90
2017-11-05T01:54:29.390Z,13.80
2017-11-05T01:56:55.787Z,13.90
2017-11-05T01:59:22.165Z,13.60
2017-11-05T02:01:48.554Z,13.90
2017-11-05T02:04:14.921Z,13.90
2017-11-05T02:06:41.302Z,13.70
2017-11-05T02:09:07.674Z,13.60
2017-11-05T02:11:34.016Z,13.50
2017-11-05T02:14:01.139Z,13.70
2017-11-05T02:16:27.553Z,13.70
2017-11-05T02:18:54.365Z,13.60
2017-11-05T02:21:26.256Z,13.60
2017-11-05T02:23:56.157Z,13.60
2017-11-05T02:26:22.514Z,13.60
2017-11-05T02:28:48.876Z,13.80
2017-11-05T02:31:15.994Z,13.20
2017-11-05T02:33:42.649Z,13.20
2017-11-05T02:36:09.790Z,13.10
2017-11-05T02:38:36.165Z,13.00
2017-11-05T02:41:02.572Z,13.10
2017-11-05T02:43:28.966Z,13.30
2017-11-05T02:45:56.089Z,13.10
2017-11-05T02:48:22.494Z,13.10
2017-11-05T02:50:49.536Z,13.00
2017-11-05T02:53:16.774Z,12.90
2017-11-05T02:55:43.132Z,12.80
2017-11-05T02:58:09.478Z,12.90
2017-11-05T03:00:35.835Z,12.90
2017-11-05T03:03:02.975Z,12.50
2017-11-05T03:05:29.367Z,12.50
2017-11-05T03:07:55.745Z,12.70
2017-11-05T03:10:22.102Z,12.60
2017-11-05T03:12:48.460Z,12.50
2017-11-05T03:15:15.567Z,12.30
2017-11-05T03:17:41.741Z,12.30
2017-11-05T03:20:08.092Z,12.30
2017-11-05T03:22:35.205Z,12.20
2017-11-05T03:25:01.346Z,12.20
2017-11-05T03:27:27.509Z,12.60
2017-11-05T03:29:53.968Z,12.30
2017-11-05T03:32:20.109Z,12.40
2017-11-05T03:34:46.493Z,12.30
2017-11-05T03:37:12.946Z,12.30
2017-11-05T03:39:39.297Z,12.20
2017-11-05T03:42:05.700Z,12.20
2017-11-05T03:44:32.070Z,12.20
2017-11-05T03:46:59.603Z,12.10
2017-11-05T03:49:26.006Z,12.10
2017-11-05T03:51:52.387Z,12.10
2017-11-05T03:54:19.503Z,12.10
2017-11-05T03:56:45.633Z,12.10
2017-11-05T03:59:12.022Z,12.00
2017-11-05T04:01:38.404Z,11.90
2017-11-05T04:04:04.746Z,11.90
2017-11-05T04:06:31.085Z,11.90
2017-11-05T04:08:57.462Z,11.90
2017-11-05T04:11:23.835Z,11.90
2017-11-05T04:13:50.190Z,11.80
2017-11-05T04:16:16.541Z,11.90
2017-11-05T04:18:45.038Z,11.90
2017-11-05T04:21:11.418Z,11.90
2017-11-05T04:23:38.529Z,11.90
2017-11-05T04:26:04.912Z,12.20
2017-11-05T04:28:32.022Z,11.80
2017-11-05T04:30:58.384Z,11.80
2017-11-05T04:33:24.734Z,11.80
2017-11-05T04:35:51.117Z,11.90
2017-11-05T04:38:18.500Z,11.90
2017-11-05T04:40:44.666Z,11.80
2017-11-05T04:43:10.813Z,11.80
2017-11-05T04:46:00.285Z,12.40
2017-11-05T04:48:32.674Z,12.00
2017-11-05T04:51:12.433Z,12.00
2017-11-05T04:53:41.848Z,12.10
2017-11-05T04:56:08.024Z,12.70
2017-11-05T04:58:34.468Z,12.20
2017-11-05T05:01:00.824Z,12.10
2017-11-05T05:03:27.153Z,12.00
2017-11-05T05:05:53.513Z,12.20
2017-11-05T05:08:19.858Z,12.40
2017-11-05T05:10:46.989Z,12.50
2017-11-05T05:13:14.102Z,12.40
2017-11-05T05:15:40.250Z,12.30
2017-11-05T05:18:06.588Z,12.40
2017-11-05T05:20:32.933Z,12.50
2017-11-05T05:22:59.310Z,12.60
2017-11-05T05:25:25.672Z,12.60
2017-11-05T05:27:52.778Z,12.50
2017-11-05T05:30:18.921Z,12.40
2017-11-05T05:32:45.052Z,12.40
2017-11-05T05:35:11.402Z,12.30
2017-11-05T05:37:37.757Z,12.60
2017-11-05T05:40:04.174Z,12.50
2017-11-05T05:42:30.533Z,12.40
2017-11-05T05:44:56.889Z,12.40
2017-11-05T05:47:24.012Z,12.30
2017-11-05T05:49:51.117Z,12.10
2017-11-05T05:52:17.269Z,12.30
2017-11-05T05:54:43.612Z,12.50
2017-11-05T05:57:09.972Z,12.50
2017-11-05T05:59:37.124Z,12.40
2017-11-05T06:02:03.521Z,12.40
2017-11-05T06:04:30.621Z,12.40
2017-11-05T06:06:56.972Z,12.50
2017-11-05T06:09:23.330Z,12.40
2017-11-05T06:11:49.694Z,12.10
2017-11-05T06:14:16.276Z,12.10
2017-11-05T06:16:42.613Z,11.90
2017-11-05T06:19:09.078Z,11.70
2017-11-05T06:21:35.457Z,11.80
2017-11-05T06:24:01.811Z,11.60
2017-11-05T06:26:28.611Z,11.50
2017-11-05T06:28:55.063Z,11.40
2017-11-05T06:31:21.455Z,11.30
2017-11-05T06:33:47.801Z,11.40
2017-11-05T06:38:46.784Z,11.10
2017-11-05T06:41:12.944Z,11.10
2017-11-05T06:43:39.208Z,11.20
2017-11-05T06:46:05.525Z,11.10
2017-11-05T06:48:32.434Z,11.30
2017-11-05T06:50:59.325Z,11.00
2017-11-05T06:53:25.450Z,11.00
2017-11-05T06:55:51.600Z,10.80
2017-11-05T06:58:17.789Z,10.90
2017-11-05T07:00:44.680Z,10.90
2017-11-05T07:03:10.820Z,10.90
2017-11-05T07:05:36.976Z,10.90
2017-11-05T07:08:03.226Z,11.00
2017-11-05T07:10:29.704Z,10.90
2017-11-05T07:12:55.839Z,10.80
2017-11-05T07:15:22.723Z,10.60
2017-11-05T07:17:49.615Z,10.70
2017-11-05T07:20:15.755Z,10.70
2017-11-05T07:22:41.899Z,10.70
2017-11-05T07:25:08.061Z,10.80
2017-11-05T07:27:34.254Z,10.80
2017-11-05T07:30:00.664Z,10.80
2017-11-05T07:32:27.751Z,10.70
2017-11-05T07:34:54.125Z,10.70
2017-11-05T07:37:20.546Z,10.90
2017-11-05T07:39:46.940Z,10.70
2017-11-05T07:42:13.291Z,10.60
2017-11-05T07:44:39.641Z,10.40
2017-11-05T07:47:06.764Z,10.30
2017-11-05T07:49:33.282Z,10.30
2017-11-05T07:52:00.184Z,10.20
2017-11-05T07:54:26.330Z,10.20
2017-11-05T07:56:52.474Z,10.20
2017-11-05T07:59:18.851Z,10.10
2017-11-05T08:01:45.177Z,10.20
2017-11-05T08:04:11.544Z,10.10
2017-11-05T08:06:38.813Z,10.20
2017-11-05T08:09:06.149Z,10.20
2017-11-05T08:11:32.525Z,10.20
2017-11-05T08:13:58.877Z,10.30
2017-11-05T08:16:26.589Z,10.00
2017-11-05T08:18:52.933Z,10.00
2017-11-05T08:21:19.314Z,10.00
2017-11-05T08:23:45.685Z,10.20
2017-11-05T08:26:12.779Z,10.10
2017-11-05T08:28:39.144Z,10.10
2017-11-05T08:31:05.560Z,10.20
2017-11-05T08:33:31.946Z,10.20
2017-11-05T08:35:58.306Z,10.20
2017-11-05T08:38:24.770Z,10.10
2017-11-05T08:40:51.405Z,10.10
2017-11-05T08:43:17.741Z,10.00
2017-11-05T08:45:44.103Z,10.00
2017-11-05T08:48:10.449Z,10.00
2017-11-05T08:50:36.804Z,10.10
2017-11-05T08:53:03.164Z,10.00
2017-11-05T08:55:29.500Z,9.80
2017-11-05T08:57:55.849Z,9.80
2017-11-05T09:00:22.967Z,9.70
2017-11-05T09:02:49.348Z,9.70
2017-11-05T09:05:15.690Z,9.70
2017-11-05T09:07:43.625Z,9.80
2017-11-05T09:10:10.042Z,9.60
2017-11-05T09:12:37.116Z,9.80
2017-11-05T09:15:03.483Z,9.80
2017-11-05T09:17:29.824Z,9.70
2017-11-05T09:19:56.225Z,9.70
2017-11-05T09:22:23.332Z,9.50
2017-11-05T09:24:49.703Z,9.30
2017-11-05T09:27:16.153Z,9.90
2017-11-05T09:29:42.492Z,9.80
2017-11-05T09:32:08.828Z,9.40
2017-11-05T09:34:35.226Z,10.20
2017-11-05T09:37:01.557Z,9.90
2017-11-05T09:39:27.869Z,9.70
2017-11-05T09:41:54.220Z,9.60
2017-11-05T09:44:20.546Z,9.60
2017-11-05T09:46:46.884Z,9.60
2017-11-05T09:49:13.225Z,9.80
2017-11-05T09:51:39.948Z,9.60
2017-11-05T09:54:06.999Z,9.60
2017-11-05T09:56:34.061Z,9.60
2017-11-05T09:59:01.135Z,9.60
2017-11-05T10:01:27.477Z,9.40
2017-11-05T10:03:53.818Z,9.60
2017-11-05T10:06:20.234Z,9.70
2017-11-05T10:08:46.727Z,9.90
2017-11-05T10:11:13.143Z,9.80
2017-11-05T10:13:40.254Z,10.00
2017-11-05T10:16:06.758Z,10.00
2017-11-05T10:18:33.002Z,9.90
2017-11-05T10:20:59.360Z,10.00
2017-11-05T10:23:26.466Z,9.80
2017-11-05T10:25:52.806Z,9.90
2017-11-05T10:28:19.276Z,10.10
2017-11-05T10:30:46.363Z,10.20
2017-11-05T10:33:12.696Z,10.20
2017-11-05T10:35:39.022Z,10.20
2017-11-05T10:38:05.368Z,10.40
2017-11-05T10:40:31.878Z,10.50
2017-11-05T10:42:58.263Z,10.50
2017-11-05T10:45:25.372Z,10.30
2017-11-05T10:47:51.709Z,10.30
2017-11-05T10:50:18.034Z,10.30
2017-11-05T10:52:44.377Z,10.50
2017-11-05T10:55:10.754Z,10.40
2017-11-05T10:57:37.101Z,10.40
2017-11-05T11:00:03.450Z,10.30
2017-11-05T11:02:29.769Z,11.00
2017-11-05T11:04:56.090Z,10.60
2017-11-05T11:07:22.516Z,10.60
2017-11-05T11:09:49.645Z,10.60
2017-11-05T11:12:16.005Z,10.60
2017-11-05T11:14:42.337Z,10.50
2017-11-05T11:17:08.698Z,10.60
2017-11-05T11:19:35.043Z,10.40
2017-11-05T11:22:01.349Z,10.60
2017-11-05T11:24:27.689Z,10.40
2017-11-05T11:26:54.058Z,10.30
2017-11-05T11:29:20.437Z,10.40
2017-11-05T11:31:46.865Z,10.50
2017-11-05T11:34:18.956Z,10.60
2017-11-05T11:36:45.297Z,10.40
2017-11-05T11:39:11.648Z,10.60
2017-11-05T11:41:37.989Z,10.50
2017-11-05T11:44:04.329Z,10.40
2017-11-05T11:46:30.841Z,10.50
2017-11-05T11:48:57.889Z,10.60
2017-11-05T11:51:25.070Z,10.80
2017-11-05T11:53:51.382Z,10.80
2017-11-05T11:56:17.722Z,10.70
2017-11-05T11:58:44.066Z,10.60
2017-11-05T12:01:10.438Z,10.80
2017-11-05T12:03:36.779Z,10.70
2017-11-05T12:06:03.261Z,10.90
2017-11-05T12:08:29.618Z,10.90
2017-11-05T12:10:55.961Z,11.00
2017-11-05T12:13:22.314Z,11.00
2017-11-05T12:15:48.629Z,10.90
2017-11-05T12:18:14.994Z,10.80
2017-11-05T12:20:41.323Z,10.80
2017-11-05T12:23:07.736Z,10.80
2017-11-05T12:25:34.865Z,10.80
2017-11-05T12:28:01.231Z,10.80
2017-11-05T12:30:28.446Z,10.90
2017-11-05T12:32:54.829Z,10.90
2017-11-05T12:35:21.205Z,11.10
2017-11-05T12:37:47.565Z,11.20
2017-11-05T12:40:14.069Z,11.30
2017-11-05T12:42:41.139Z,11.10
2017-11-05T12:45:08.309Z,11.20
2017-11-05T12:47:34.631Z,11.10
2017-11-05T12:50:01.702Z,11.00
2017-11-05T12:52:28.842Z,10.90
2017-11-05T12:54:55.024Z,10.90
2017-11-05T12:57:21.251Z,11.00
2017-11-05T12:59:47.443Z,10.90
2017-11-05T13:02:13.913Z,11.10
2017-11-05T13:04:40.079Z,11.20
2017-11-05T13:07:06.424Z,11.10
2017-11-05T13:09:32.776Z,11.10
2017-11-05T13:11:59.108Z,11.40
2017-11-05T13:14:25.467Z,11.20
2017-11-05T13:16:51.885Z,11.40
2017-11-05T13:19:18.291Z,11.20
2017-11-05T13:21:44.667Z,11.60
2017-11-05T13:24:11.742Z,11.20
2017-11-05T13:26:38.835Z,11.20
2017-11-05T13:29:05.223Z,11.20
2017-11-05T13:31:31.545Z,11.40
2017-11-05T13:33:57.905Z,11.30
2017-11-05T13:36:24.381Z,11.20
2017-11-05T13:38:51.025Z,11.30
2017-11-05T13:44:15.858Z,11.10
2017-11-05T13:46:42.204Z,11.20
2017-11-05T13:49:09.313Z,11.00
2017-11-05T13:51:35.482Z,11.00
2017-11-05T13:54:01.815Z,11.10
2017-11-05T13:56:33.491Z,11.00
2017-11-05T13:58:59.864Z,11.20
2017-11-05T14:01:26.245Z,11.20
2017-11-05T14:03:53.361Z,11.20
2017-11-05T14:06:20.488Z,11.10
2017-11-05T14:08:46.844Z,11.10
2017-11-05T14:11:20.100Z,11.10
2017-11-05T14:13:46.456Z,11.00
2017-11-05T14:16:12.927Z,11.20
2017-11-05T14:18:39.265Z,11.30
2017-11-05T14:21:05.756Z,11.50
2017-11-05T14:23:32.138Z,11.40
2017-11-05T14:26:05.303Z,11.40
2017-11-05T14:28:32.171Z,11.30
2017-11-05T14:30:59.075Z,11.50
2017-11-05T14:33:25.206Z,11.30
2017-11-05T14:35:51.388Z,11.10
2017-11-05T14:38:18.287Z,10.80
2017-11-05T14:40:50.408Z,10.80
2017-11-05T14:43:16.553Z,10.90
2017-11-05T14:45:42.708Z,10.90
2017-11-05T14:48:09.628Z,10.90
2017-11-05T14:50:35.786Z,10.60
2017-11-05T14:53:01.945Z,10.80
2017-11-05T14:55:28.104Z,10.80
2017-11-05T14:58:01.075Z,11.00
2017-11-05T15:00:27.219Z,10.90
2017-11-05T15:02:53.375Z,11.00
2017-11-05T15:05:19.738Z,10.80
2017-11-05T15:07:46.269Z,10.60
2017-11-05T15:10:12.434Z,10.40
2017-11-05T15:12:39.541Z,10.00
2017-11-05T15:15:05.905Z,10.00
2017-11-05T15:17:35.318Z,9.70
2017-11-05T15:20:01.673Z,9.90
2017-11-05T15:22:28.035Z,10.20
2017-11-05T15:24:54.407Z,9.90
2017-11-05T15:27:20.798Z,9.90
2017-11-05T15:29:47.888Z,9.90
2017-11-05T15:32:14.956Z,9.90
2017-11-05T15:34:44.705Z,10.10
2017-11-05T15:37:12.418Z,9.80
2017-11-05T15:39:38.585Z,9.60
2017-11-05T15:42:04.772Z,9.50
2017-11-05T15:44:30.965Z,9.70
2017-11-05T15:46:57.114Z,9.70
2017-11-05T15:49:23.278Z,9.80
2017-11-05T15:51:50.315Z,9.70
2017-11-05T15:54:23.225Z,9.70
2017-11-05T15:56:49.426Z,9.60
2017-11-05T15:59:16.313Z,9.70
2017-11-05T16:01:43.178Z,9.70
2017-11-05T16:04:10.059Z,9.60
2017-11-05T16:06:36.961Z,9.60
2017-11-05T16:09:03.867Z,9.50
2017-11-05T16:11:34.206Z,9.50
2017-11-05T16:14:00.333Z,9.50
2017-11-05T16:16:26.486Z,9.40
2017-11-05T16:18:52.642Z,9.40
2017-11-05T16:21:18.772Z,9.30
2017-11-05T16:23:44.927Z,9.50
2017-11-05T16:26:11.047Z,9.30
2017-11-05T16:31:11.453Z,9.10
2017-11-05T16:33:37.661Z,9.30
2017-11-05T16:36:03.921Z,9.10
2017-11-05T16:38:30.061Z,9.20
2017-11-05T16:40:56.227Z,9.20
2017-11-05T16:43:22.392Z,9.30
2017-11-05T16:45:48.698Z,9.60
2017-11-05T16:48:18.035Z,9.30
2017-11-05T16:50:44.177Z,9.20
2017-11-05T16:53:10.507Z,9.60
2017-11-05T16:55:36.926Z,9.20
2017-11-05T16:58:03.474Z,9.10
2017-11-05T17:00:29.844Z,9.20
2017-11-05T17:02:56.225Z,9.10
2017-11-05T17:05:22.806Z,9.00
2017-11-05T17:07:49.906Z,9.20
2017-11-05T17:10:16.285Z,9.20
2017-11-05T17:12:42.775Z,9.10
2017-11-05T17:15:10.018Z,8.90
2017-11-05T17:17:37.240Z,8.90
2017-11-05T17:20:03.816Z,8.90
2017-11-05T17:22:30.314Z,8.80
2017-11-05T17:24:56.732Z,8.90
2017-11-05T17:27:23.104Z,8.80
2017-11-05T17:29:49.452Z,8.80
2017-11-05T17:32:15.835Z,8.80
2017-11-05T17:34:43.064Z,8.70
2017-11-05T17:37:09.338Z,8.70
2017-11-05T17:39:36.513Z,8.80
2017-11-05T17:42:03.385Z,8.70
2017-11-05T17:44:29.749Z,8.70
2017-11-05T17:46:55.894Z,8.50
2017-11-05T17:49:22.067Z,8.60
2017-11-05T17:51:49.003Z,8.50
2017-11-05T17:54:15.405Z,8.60
2017-11-05T17:56:41.938Z,8.40
2017-11-05T17:59:08.366Z,8.40
2017-11-05T18:01:35.345Z,8.50
2017-11-05T18:04:01.778Z,8.50
2017-11-05T18:06:28.364Z,8.50
2017-11-05T18:08:55.621Z,8.20
2017-11-05T18:11:21.948Z,8.20
2017-11-05T18:13:49.052Z,8.20
2017-11-05T18:16:15.554Z,8.20
2017-11-05T18:18:42.665Z,7.90
2017-11-05T18:21:09.311Z,7.90
2017-11-05T18:23:36.629Z,7.60
2017-11-05T18:26:03.079Z,7.60
2017-11-05T18:28:29.544Z,7.60
2017-11-05T18:30:56.820Z,7.40
2017-11-05T18:33:23.138Z,7.40
2017-11-05T18:35:50.289Z,7.50
2017-11-05T18:38:16.879Z,7.50
2017-11-05T18:40:43.404Z,7.50
2017-11-05T18:43:10.726Z,7.80
2017-11-05T18:45:37.065Z,7.70
2017-11-05T18:48:03.395Z,7.70
2017-11-05T18:50:29.741Z,7.60
2017-11-05T18:52:56.101Z,7.70
2017-11-05T18:55:22.497Z,7.60
2017-11-05T18:57:48.862Z,7.60
2017-11-05T19:00:15.262Z,7.60
2017-11-05T19:02:42.392Z,7.50
2017-11-05T19:05:08.558Z,7.50
2017-11-05T19:07:34.905Z,7.30
2017-11-05T19:10:02.041Z,7.30
2017-11-05T19:12:28.418Z,7.30
2017-11-05T19:14:55.698Z,7.20
2017-11-05T19:17:21.813Z,7.20
2017-11-05T19:19:48.708Z,7.30
2017-11-05T19:22:14.878Z,7.30
2017-11-05T19:24:41.014Z,7.20
2017-11-05T19:27:07.379Z,7.30
2017-11-05T19:29:33.723Z,7.20
2017-11-05T19:32:00.090Z,7.10
2017-11-05T19:34:26.895Z,6.90
2017-11-05T19:36:53.232Z,7.00
2017-11-05T19:39:19.548Z,7.10
2017-11-05T19:41:45.877Z,7.10
2017-11-05T19:44:12.254Z,7.20
2017-11-05T19:46:38.593Z,7.20
2017-11-05T19:49:04.994Z,7.20
2017-11-05T19:51:32.086Z,7.20
2017-11-05T19:53:58.214Z,7.20
2017-11-05T19:56:24.505Z,7.10
2017-11-05T19:58:50.836Z,7.30
2017-11-05T20:01:17.197Z,7.30
2017-11-05T20:03:43.530Z,7.10
2017-11-05T20:06:09.874Z,7.50
2017-11-05T20:08:36.237Z,7.00
2017-11-05T20:11:02.623Z,7.00
2017-11-05T20:13:28.959Z,6.80
2017-11-05T20:15:55.291Z,6.80
2017-11-05T20:18:21.734Z,6.90
2017-11-05T20:20:48.807Z,7.00
2017-11-05T20:23:14.949Z,7.00
2017-11-05T20:25:41.083Z,7.00
2017-11-05T20:28:07.277Z,6.80
2017-11-05T20:30:33.656Z,6.80
2017-11-05T20:33:00.002Z,6.70
2017-11-05T20:35:26.337Z,6.70
2017-11-05T20:37:53.405Z,6.70
2017-11-05T20:40:19.607Z,6.70
2017-11-05T20:42:46.563Z,6.80
2017-11-05T20:45:12.702Z,6.80
2017-11-05T20:47:39.157Z,6.90
2017-11-05T20:50:05.509Z,7.00
2017-11-05T20:52:32.592Z,6.90
2017-11-05T20:54:59.685Z,7.10
2017-11-05T20:57:25.865Z,7.50
2017-11-05T20:59:52.055Z,7.30
2017-11-05T21:02:18.215Z,7.20
2017-11-05T21:04:44.653Z,7.10
2017-11-05T21:07:11.035Z,7.00
2017-11-05T21:09:38.106Z,6.90
2017-11-05T21:12:04.451Z,6.90
2017-11-05T21:14:30.782Z,6.90
2017-11-05T21:16:57.209Z,6.90
2017-11-05T21:19:23.522Z,6.80
2017-11-05T21:21:49.881Z,6.90
2017-11-05T21:24:16.201Z,6.80
2017-11-05T21:26:42.749Z,6.70
2017-11-05T21:29:09.105Z,6.60
2017-11-05T21:31:35.429Z,6.80
2017-11-05T21:34:01.917Z,6.30
2017-11-05T21:36:28.990Z,6.80
2017-11-05T21:38:55.413Z,6.80
2017-11-05T21:41:22.536Z,6.90
2017-11-05T21:43:49.019Z,6.90
2017-11-05T21:46:16.207Z,7.00
2017-11-05T21:48:42.666Z,7.00
2017-11-05T21:51:09.041Z,7.00
2017-11-05T21:53:35.386Z,7.00
2017-11-05T21:56:01.815Z,6.80
2017-11-05T21:58:28.229Z,6.80
2017-11-05T22:00:54.641Z,6.80
2017-11-05T22:03:21.857Z,6.80
2017-11-05T22:05:48.192Z,6.80
2017-11-05T22:08:14.624Z,6.90
2017-11-05T22:10:41.692Z,6.90
2017-11-05T22:13:07.829Z,6.90
2017-11-05T22:15:34.170Z,6.90
2017-11-05T22:18:00.496Z,6.70
2017-11-05T22:20:26.796Z,6.80
2017-11-05T22:22:53.125Z,6.80
2017-11-05T22:25:20.194Z,6.90
2017-11-05T22:27:46.344Z,6.90
2017-11-05T22:30:12.486Z,6.70
2017-11-05T22:32:39.594Z,6.70
2017-11-05T22:35:05.734Z,6.70
2017-11-05T22:37:31.898Z,6.70
2017-11-05T22:39:58.082Z,6.70
2017-11-05T22:42:25.181Z,6.70
2017-11-05T22:44:51.434Z,6.70
2017-11-05T22:47:17.802Z,6.60
2017-11-05T22:49:44.865Z,6.60
2017-11-05T22:52:11.006Z,6.60
2017-11-05T22:54:37.332Z,6.60
2017-11-05T22:57:03.687Z,6.60
2017-11-05T22:59:30.078Z,6.60
2017-11-05T23:01:56.409Z,6.70
2017-11-05T23:04:22.735Z,6.20
2017-11-05T23:06:49.081Z,6.60
2017-11-05T23:09:15.425Z,6.60
2017-11-05T23:11:41.774Z,6.60
2017-11-05T23:14:08.135Z,6.70
2017-11-05T23:16:34.524Z,6.70
2017-11-05T23:19:01.637Z,6.40
2017-11-05T23:21:27.987Z,6.30
2017-11-05T23:23:54.358Z,6.30
2017-11-05T23:26:20.676Z,6.10
2017-11-05T23:28:47.108Z,6.30
2017-11-05T23:31:13.443Z,6.40
2017-11-05T23:33:39.781Z,6.40
2017-11-05T23:36:06.132Z,6.50
2017-11-05T23:38:33.277Z,6.20
2017-11-05T23:40:59.650Z,6.20
2017-11-05T23:43:26.013Z,6.20
2017-11-05T23:45:52.352Z,6.30
2017-11-05T23:48:18.683Z,6.40
2017-11-05T23:50:45.036Z,6.30
2017-11-05T23:53:11.364Z,6.20
2017-11-05T23:55:37.840Z,6.20
2017-11-05T23:58:04.248Z,6.20
